Weather at C 719 Heliport [CLOSED]

Public forecast

Using degrees Celsius for public forecast. Weather courtesy of forecast.io.

Closest aviation weather report (METAR) to C 719 Heliport

Closest report is Kunsan Air Base, 25.2 nm (46.6 km) W. Retrieved 2021/12/05 15:56 UTC (49 minutes ago):

RKJK 051556Z AUTO 10006KT 10SM CLR 01/M02 A3031 RMK AO2 SLP269 T00091023

Closest aviation forecast (TAF) to C 719 Heliport

Closest forecast is Kunsan Air Base, 25.2 nm (46.6 km) W. Retrieved 2021/12/05 16:09 UTC (36 minutes ago):

TAF TAF RKJK 051600Z 0516/0622 08007KT 9999 SKC QNH3031INS BECMG 0521/0522 VRB05KT 6000 BR SKC QNH3034INS BECMG 0600/0601 11007KT 9999 NSW SCT200 QNH3036INS BECMG 0616/0617 07006KT 9999 BKN035 BKN080 QNH3030INS TX11/0606Z TNM02/0523Z